Terminal Aerodrome Forecast
Issued by NWS

Home | Current Version | Previous Version | Text Only | Print | Product List | Glossary On
Versions: 1 2 3 4 5 6 7 8 9 10 11 12 13 14 15 16 17 18 19 20 21 22 23 24
000
FTUS43 KLOT 211740
TAFGYY
TAF
KGYY 211740Z 2118/2218 VRB04KT 2SM BR OVC003
      TEMPO 2118/2120 1/4SM -DZ FG OVC001
     FM212000 13004KT 1SM -DZ BR OVC003
      TEMPO 2120/2124 1/4SM DZ FG OVC001
     FM220000 15007KT 3/4SM -DZ BR OVC003
      TEMPO 2200/2204 1/4SM DZ FG OVC001
     FM221100 12007KT 1SM SHRA BR OVC004 PROB30 2211/2217 -TSRA BR
      OVC003CB=

USA.gov is the U.S. government's official web portal to all federal, state and local government web resources and services.